Time;durP1;ratioP1;P1;durP2;ratioP2;P2;SDS_P1;SDS_P2;PMS_P1;PMS_P2;Temp;Humidity;BMP_temperature;BMP_pressure;BME280_temperature;BME280_humidity;BME280_pressure;Samples;Min_cycle;Max_cycle;Signal;HPM_P1;HPM_P2
2023/12/02 00:00:15;;;;;;;25.95;12.55;;;-1.20;99.90;;;;;;5027888;28;20799;-61
2023/12/02 00:02:41;;;;;;;22.45;13.48;;;-1.20;99.90;;;;;;5028438;28;20500;-61
2023/12/02 00:05:07;;;;;;;19.95;12.20;;;-1.20;99.90;;;;;;5026925;28;20034;-62
2023/12/02 00:07:33;;;;;;;25.35;12.65;;;-1.20;99.90;;;;;;5026934;28;20075;-62
2023/12/02 00:09:58;;;;;;;27.90;14.50;;;-1.20;99.90;;;;;;5027576;28;20022;-63
2023/12/02 00:12:24;;;;;;;21.75;13.50;;;-1.20;99.90;;;;;;5026683;28;20416;-62
2023/12/02 00:14:50;;;;;;;23.48;12.40;;;-1.20;99.90;;;;;;5026101;28;20798;-62
2023/12/02 00:17:16;;;;;;;24.58;13.00;;;-1.20;99.90;;;;;;5026469;28;20021;-62
2023/12/02 00:19:42;;;;;;;21.30;11.93;;;-1.20;99.90;;;;;;5026368;28;20102;-62
2023/12/02 00:22:08;;;;;;;20.80;11.93;;;-1.20;99.90;;;;;;5027450;28;20037;-61
2023/12/02 00:24:34;;;;;;;21.05;11.68;;;-1.20;99.90;;;;;;5027514;28;20091;-62
2023/12/02 00:26:59;;;;;;;17.58;10.57;;;-1.20;99.90;;;;;;5025089;28;20429;-61
2023/12/02 00:29:25;;;;;;;14.50;9.70;;;-1.20;99.90;;;;;;5026417;28;20461;-62
2023/12/02 00:31:50;;;;;;;19.67;11.60;;;-1.30;99.90;;;;;;5026296;28;20354;-61
2023/12/02 00:34:16;;;;;;;20.30;10.32;;;-1.30;99.90;;;;;;5026911;28;20017;-62
2023/12/02 00:36:45;;;;;;;22.48;12.88;;;-1.30;99.90;;;;;;5025833;28;20440;-62
2023/12/02 00:39:11;;;;;;;19.95;11.90;;;-1.30;99.90;;;;;;5027459;28;20077;-61
2023/12/02 00:41:36;;;;;;;23.98;12.48;;;-1.30;99.90;;;;;;5026356;28;20033;-62
2023/12/02 00:44:02;;;;;;;23.38;12.13;;;-1.30;99.90;;;;;;5027605;28;20100;-62
2023/12/02 00:46:28;;;;;;;29.65;13.93;;;-1.30;99.90;;;;;;5026618;28;20018;-61
2023/12/02 00:48:53;;;;;;;26.40;13.00;;;-1.30;99.90;;;;;;5024078;28;20044;-62
2023/12/02 00:51:19;;;;;;;24.10;11.65;;;-1.20;99.90;;;;;;5027944;28;20014;-62
2023/12/02 00:53:44;;;;;;;23.73;13.38;;;-1.20;99.90;;;;;;5024804;28;20017;-61
2023/12/02 00:56:10;;;;;;;56.05;19.35;;;-1.20;99.90;;;;;;5026801;28;20561;-61
2023/12/02 00:58:36;;;;;;;25.20;13.45;;;-1.30;99.90;;;;;;5026793;28;20033;-62
2023/12/02 01:01:01;;;;;;;19.67;12.57;;;-1.30;99.90;;;;;;5027141;28;20087;-62
2023/12/02 01:03:27;;;;;;;31.00;14.63;;;-1.30;99.90;;;;;;5024959;28;20092;-62
2023/12/02 01:05:53;;;;;;;38.72;16.25;;;-1.30;99.90;;;;;;5026438;28;20108;-62
2023/12/02 01:08:18;;;;;;;22.48;12.63;;;-1.30;99.90;;;;;;5025748;28;20037;-62
2023/12/02 01:10:44;;;;;;;28.98;13.13;;;-1.30;99.90;;;;;;5025217;28;20040;-61
2023/12/02 01:13:09;;;;;;;23.88;13.32;;;-1.30;99.90;;;;;;5026366;28;20034;-62
2023/12/02 01:15:35;;;;;;;37.78;17.23;;;-1.30;99.90;;;;;;5028066;28;20018;-62
2023/12/02 01:18:01;;;;;;;23.25;11.57;;;-1.30;99.90;;;;;;5026134;28;20429;-61
2023/12/02 01:20:26;;;;;;;41.88;18.40;;;-1.30;99.90;;;;;;5026900;28;20036;-61
2023/12/02 01:22:52;;;;;;;24.00;12.10;;;-1.30;99.90;;;;;;5024365;28;20048;-62
2023/12/02 01:25:18;;;;;;;32.50;14.18;;;-1.30;99.90;;;;;;5025716;28;20029;-62
2023/12/02 01:27:43;;;;;;;28.10;13.13;;;-1.40;99.90;;;;;;5024946;28;20080;-63
2023/12/02 01:30:09;;;;;;;21.90;12.73;;;-1.30;99.90;;;;;;5026052;28;20025;-62
2023/12/02 01:32:35;;;;;;;21.67;13.65;;;-1.40;99.90;;;;;;5025564;28;20032;-62
2023/12/02 01:35:01;;;;;;;25.48;13.48;;;-1.40;99.90;;;;;;5025651;28;20568;-61
2023/12/02 01:37:26;;;;;;;22.38;12.18;;;-1.40;99.90;;;;;;5025893;28;20264;-61
2023/12/02 01:39:52;;;;;;;23.95;13.60;;;-1.30;99.90;;;;;;5023994;28;20028;-62
2023/12/02 01:42:18;;;;;;;32.35;15.18;;;-1.40;99.90;;;;;;5026748;28;20024;-62
2023/12/02 01:44:44;;;;;;;31.45;15.57;;;-1.40;99.90;;;;;;5023911;28;20029;-61
2023/12/02 01:47:09;;;;;;;25.40;13.05;;;-1.30;99.90;;;;;;5026156;28;20680;-62
2023/12/02 01:49:36;;;;;;;24.02;13.65;;;-1.30;99.90;;;;;;5024822;28;20030;-62
2023/12/02 01:52:02;;;;;;;52.08;20.80;;;-1.30;99.90;;;;;;5025415;28;20033;-61
2023/12/02 01:54:28;;;;;;;50.35;18.80;;;-1.30;99.90;;;;;;5024205;28;20105;-62
2023/12/02 01:56:53;;;;;;;23.45;13.38;;;-1.30;99.90;;;;;;5025839;28;20104;-62
2023/12/02 01:59:19;;;;;;;24.10;13.48;;;-1.40;99.90;;;;;;5024567;28;20462;-62
2023/12/02 02:01:45;;;;;;;25.90;15.38;;;-1.40;99.90;;;;;;5024379;28;20095;-62
2023/12/02 02:04:11;;;;;;;25.15;12.60;;;-1.40;99.90;;;;;;5026366;28;20034;-61
2023/12/02 02:06:37;;;;;;;21.10;12.52;;;-1.30;99.90;;;;;;5020242;28;20054;-61
2023/12/02 02:09:04;;;;;;;17.92;11.82;;;-1.40;99.90;;;;;;5023587;28;20040;-61
2023/12/02 02:11:29;;;;;;;23.40;12.45;;;-1.40;99.90;;;;;;5021855;28;20046;-61
2023/12/02 02:13:55;;;;;;;22.88;13.43;;;-1.40;99.90;;;;;;5025499;28;20049;-62
2023/12/02 02:16:21;;;;;;;21.83;13.00;;;-1.40;99.90;;;;;;5023767;28;20021;-61
2023/12/02 02:18:46;;;;;;;27.90;13.75;;;-1.40;99.90;;;;;;5025141;28;20025;-60
2023/12/02 02:21:16;;;;;;;32.75;15.57;;;-1.40;99.90;;;;;;5024985;28;20136;-61
2023/12/02 02:23:42;;;;;;;28.00;15.23;;;-1.40;99.90;;;;;;5022132;28;21298;-62
2023/12/02 02:26:08;;;;;;;26.50;14.48;;;-1.40;99.90;;;;;;5023511;28;20026;-61
2023/12/02 02:28:33;;;;;;;22.52;13.40;;;-1.50;99.90;;;;;;5022862;28;20029;-61
2023/12/02 02:30:59;;;;;;;27.90;15.15;;;-1.50;99.90;;;;;;5024819;28;20018;-62
2023/12/02 02:33:26;;;;;;;38.22;17.92;;;-1.50;99.90;;;;;;5025925;28;20025;-62
2023/12/02 02:35:51;;;;;;;36.40;17.92;;;-1.50;99.90;;;;;;5023867;28;20149;-62
2023/12/02 02:38:17;;;;;;;23.75;13.50;;;-1.50;99.90;;;;;;5025400;28;20116;-62
2023/12/02 02:40:43;;;;;;;23.02;13.63;;;-1.50;99.90;;;;;;5024025;28;20444;-61
2023/12/02 02:43:09;;;;;;;23.20;13.88;;;-1.50;99.90;;;;;;5024837;28;20037;-61
2023/12/02 02:45:35;;;;;;;22.70;12.90;;;-1.50;99.90;;;;;;5023236;28;20025;-62
2023/12/02 02:48:00;;;;;;;23.88;13.77;;;-1.50;99.90;;;;;;5023811;28;20018;-61
2023/12/02 02:50:26;;;;;;;30.40;15.98;;;-1.50;99.90;;;;;;5025971;28;20046;-63
2023/12/02 02:52:52;;;;;;;24.33;13.65;;;-1.50;99.90;;;;;;5026185;28;20482;-60
2023/12/02 02:55:18;;;;;;;24.38;14.25;;;-1.50;99.90;;;;;;5024968;28;20128;-62
2023/12/02 02:57:43;;;;;;;18.98;11.48;;;-1.50;99.90;;;;;;5022449;28;20836;-62
2023/12/02 03:00:09;;;;;;;17.25;12.82;;;-1.50;99.90;;;;;;5024999;28;20072;-61
2023/12/02 03:02:37;;;;;;;19.67;11.40;;;-1.50;99.90;;;;;;5025705;28;20022;-62
2023/12/02 03:05:04;;;;;;;23.40;11.88;;;-1.50;99.90;;;;;;5022934;28;20025;-62
2023/12/02 03:07:30;;;;;;;18.08;11.07;;;-1.60;99.90;;;;;;5024129;28;20111;-62
2023/12/02 03:09:56;;;;;;;22.80;13.27;;;-1.60;99.90;;;;;;5027332;28;20097;-61
2023/12/02 03:12:23;;;;;;;22.58;12.30;;;-1.60;99.90;;;;;;5029243;28;20025;-61
2023/12/02 03:14:48;;;;;;;23.83;13.60;;;-1.60;99.90;;;;;;5027227;28;20041;-62
2023/12/02 03:17:14;;;;;;;21.40;10.88;;;-1.60;99.90;;;;;;5028250;28;20247;-63
2023/12/02 03:19:39;;;;;;;21.20;12.10;;;-1.70;99.90;;;;;;5028585;28;20037;-61
2023/12/02 03:22:05;;;;;;;19.58;11.95;;;-1.70;99.90;;;;;;5028097;28;20049;-61
2023/12/02 03:24:31;;;;;;;24.27;12.63;;;-1.60;99.90;;;;;;5028682;28;20021;-60
2023/12/02 03:26:56;;;;;;;22.08;11.88;;;-1.60;99.90;;;;;;5027435;28;20636;-62
2023/12/02 03:29:22;;;;;;;15.13;10.25;;;-1.70;99.90;;;;;;5027995;28;20057;-62
2023/12/02 03:31:48;;;;;;;22.55;11.45;;;-1.70;99.90;;;;;;5027167;28;20032;-62
2023/12/02 03:34:13;;;;;;;21.20;11.73;;;-1.70;99.90;;;;;;5028118;28;20021;-62
2023/12/02 03:36:39;;;;;;;19.00;12.82;;;-1.70;99.90;;;;;;5028719;28;20017;-61
2023/12/02 03:39:05;;;;;;;22.70;11.82;;;-1.70;99.90;;;;;;5027354;28;20026;-62
2023/12/02 03:41:32;;;;;;;16.42;11.27;;;-1.70;99.90;;;;;;5028386;28;20036;-61
2023/12/02 03:43:57;;;;;;;21.52;11.63;;;-1.70;99.90;;;;;;5027013;28;20496;-61
2023/12/02 03:46:23;;;;;;;20.92;12.90;;;-1.80;99.90;;;;;;5026775;28;20029;-62
2023/12/02 03:48:48;;;;;;;25.20;12.73;;;-1.80;99.90;;;;;;5027611;28;20354;-61
2023/12/02 03:51:14;;;;;;;22.27;11.30;;;-1.70;99.90;;;;;;5027764;28;20013;-61
2023/12/02 03:53:40;;;;;;;19.70;11.60;;;-1.70;99.90;;;;;;5024684;28;20021;-61
2023/12/02 03:56:06;;;;;;;19.13;10.93;;;-1.70;99.90;;;;;;5027037;28;20898;-61
2023/12/02 03:58:32;;;;;;;19.60;10.63;;;-1.70;99.90;;;;;;5028467;28;20037;-61
2023/12/02 04:00:58;;;;;;;22.70;11.88;;;-1.80;99.90;;;;;;5026400;28;20135;-61
2023/12/02 04:03:23;;;;;;;18.15;12.00;;;-1.80;99.90;;;;;;5028387;28;20380;-62
2023/12/02 04:05:50;;;;;;;19.80;11.63;;;-1.90;99.90;;;;;;5026408;28;20032;-61
2023/12/02 04:08:16;;;;;;;22.00;12.52;;;-1.90;99.90;;;;;;5027688;28;20032;-62
2023/12/02 04:10:42;;;;;;;21.70;13.05;;;-1.90;99.90;;;;;;5025534;28;20536;-62
2023/12/02 04:13:08;;;;;;;22.42;10.98;;;-1.90;99.90;;;;;;5027051;28;20032;-62
2023/12/02 04:15:34;;;;;;;19.63;11.60;;;-1.90;99.90;;;;;;5027215;28;20018;-61
2023/12/02 04:18:00;;;;;;;22.63;12.13;;;-1.90;99.90;;;;;;5027455;28;20029;-62
2023/12/02 04:20:25;;;;;;;16.25;9.02;;;-1.90;99.90;;;;;;5025617;28;20044;-61
2023/12/02 04:22:51;;;;;;;21.75;10.80;;;-1.90;99.90;;;;;;5027666;28;20026;-60
2023/12/02 04:25:16;;;;;;;19.25;10.02;;;-1.90;99.90;;;;;;5028125;28;20526;-61
2023/12/02 04:27:42;;;;;;;18.90;11.45;;;-2.00;99.90;;;;;;5027030;28;20033;-61
2023/12/02 04:30:09;;;;;;;20.90;10.57;;;-2.00;99.90;;;;;;5027645;28;20032;-61
2023/12/02 04:32:34;;;;;;;18.70;11.65;;;-2.00;99.90;;;;;;5023421;28;20040;-60
2023/12/02 04:35:01;;;;;;;21.23;10.05;;;-2.00;99.90;;;;;;5025602;28;20389;-60
2023/12/02 04:37:26;;;;;;;14.57;9.85;;;-1.90;99.90;;;;;;5027686;28;20033;-62
2023/12/02 04:39:55;;;;;;;17.55;10.55;;;-2.00;99.90;;;;;;5026675;28;20103;-60
2023/12/02 04:42:21;;;;;;;21.92;11.93;;;-2.00;99.90;;;;;;5025215;28;20076;-62
2023/12/02 04:44:46;;;;;;;18.25;10.35;;;-2.00;99.90;;;;;;5026768;28;20033;-61
2023/12/02 04:47:12;;;;;;;23.90;11.80;;;-2.00;99.90;;;;;;5025317;28;20497;-61
2023/12/02 04:49:37;;;;;;;23.02;12.88;;;-1.90;99.90;;;;;;5026994;28;20091;-61
2023/12/02 04:52:04;;;;;;;25.67;13.27;;;-1.90;99.90;;;;;;5026288;28;20079;-61
2023/12/02 04:54:30;;;;;;;25.30;13.60;;;-1.90;99.90;;;;;;5026380;28;20032;-62
2023/12/02 04:56:56;;;;;;;22.35;12.27;;;-1.90;99.90;;;;;;5024644;28;20037;-60
2023/12/02 04:59:22;;;;;;;22.70;12.35;;;-1.90;99.90;;;;;;5026220;28;20061;-62
2023/12/02 05:01:47;;;;;;;28.20;15.98;;;-1.90;99.90;;;;;;5024030;28;20030;-61
2023/12/02 05:04:13;;;;;;;29.55;15.48;;;-1.90;99.90;;;;;;5026189;28;20112;-62
2023/12/02 05:06:39;;;;;;;44.22;18.48;;;-1.90;99.90;;;;;;5027355;28;20018;-60
2023/12/02 05:09:09;;;;;;;106.30;38.15;;;-1.90;99.90;;;;;;5024557;28;20048;-62
2023/12/02 05:11:35;;;;;;;106.28;41.45;;;-1.90;99.90;;;;;;5025985;28;20044;-62
2023/12/02 05:14:01;;;;;;;38.85;18.60;;;-1.90;99.90;;;;;;5026098;28;20433;-61
2023/12/02 05:16:27;;;;;;;54.28;21.52;;;-1.90;99.90;;;;;;5024561;28;20121;-61
2023/12/02 05:18:52;;;;;;;17.70;10.70;;;-1.90;99.90;;;;;;5024849;28;20025;-61
2023/12/02 05:21:18;;;;;;;44.42;18.70;;;-1.90;99.90;;;;;;5026310;28;20021;-61
2023/12/02 05:23:45;;;;;;;47.47;18.13;;;-2.00;99.90;;;;;;5024021;28;20072;-61
2023/12/02 05:26:10;;;;;;;66.85;25.50;;;-2.00;99.90;;;;;;5024105;28;20032;-62
2023/12/02 05:28:38;;;;;;;78.80;28.48;;;-2.00;99.90;;;;;;5025904;28;20029;-62
2023/12/02 05:31:04;;;;;;;107.90;34.47;;;-2.10;99.90;;;;;;5025003;28;20064;-62
2023/12/02 05:33:30;;;;;;;56.35;23.02;;;-2.10;99.90;;;;;;5025391;28;20029;-62
2023/12/02 05:35:55;;;;;;;64.72;25.63;;;-2.10;99.90;;;;;;5024334;28;20415;-60
2023/12/02 05:38:21;;;;;;;54.70;20.98;;;-2.10;99.90;;;;;;5025860;28;20034;-62
2023/12/02 05:40:47;;;;;;;32.70;16.42;;;-2.10;99.90;;;;;;5025712;28;20034;-60
2023/12/02 05:43:13;;;;;;;20.23;10.82;;;-2.10;99.90;;;;;;5026833;28;20124;-60
2023/12/02 05:45:39;;;;;;;19.45;11.48;;;-2.10;99.90;;;;;;5025686;28;20104;-62
2023/12/02 05:48:05;;;;;;;20.45;11.52;;;-2.00;99.90;;;;;;5025998;28;20035;-62
2023/12/02 05:50:31;;;;;;;26.50;13.85;;;-2.10;99.90;;;;;;5025223;28;20588;-62
2023/12/02 05:52:56;;;;;;;23.48;12.60;;;-2.10;99.90;;;;;;5024556;28;20033;-62
2023/12/02 05:55:22;;;;;;;20.58;12.15;;;-2.20;99.90;;;;;;5025205;28;20083;-62
2023/12/02 05:57:48;;;;;;;21.00;10.75;;;-2.10;99.90;;;;;;5023117;28;20025;-62
2023/12/02 06:00:16;;;;;;;27.17;14.25;;;-2.20;99.90;;;;;;5026386;28;20044;-62
2023/12/02 06:02:42;;;;;;;18.73;10.82;;;-2.10;99.90;;;;;;5025980;28;20519;-61
2023/12/02 06:05:08;;;;;;;21.55;11.20;;;-2.10;99.90;;;;;;5025292;28;20033;-62
2023/12/02 06:07:34;;;;;;;20.90;12.35;;;-2.10;99.90;;;;;;5025834;28;20029;-61
2023/12/02 06:09:59;;;;;;;16.92;10.55;;;-2.10;99.90;;;;;;5025909;28;20021;-61
2023/12/02 06:12:25;;;;;;;21.10;12.68;;;-2.10;99.90;;;;;;5024763;28;20076;-62
2023/12/02 06:14:51;;;;;;;17.15;11.55;;;-2.10;99.90;;;;;;5024007;28;20052;-60
2023/12/02 06:17:16;;;;;;;16.38;9.07;;;-2.10;99.90;;;;;;5025725;28;20033;-61
2023/12/02 06:19:42;;;;;;;18.35;10.90;;;-2.10;99.90;;;;;;5025985;28;20022;-60
2023/12/02 06:22:07;;;;;;;17.65;10.30;;;-2.20;99.90;;;;;;5024436;28;20603;-61
2023/12/02 06:24:33;;;;;;;15.38;9.93;;;-2.20;99.90;;;;;;5025702;28;20035;-61
2023/12/02 06:26:59;;;;;;;15.57;9.32;;;-2.20;99.90;;;;;;5024393;28;20033;-61
2023/12/02 06:29:24;;;;;;;17.05;10.05;;;-2.20;99.90;;;;;;5024924;28;20088;-61
2023/12/02 06:31:50;;;;;;;19.10;10.45;;;-2.20;99.90;;;;;;5024694;28;20587;-61
2023/12/02 06:34:16;;;;;;;18.10;11.65;;;-2.20;99.90;;;;;;5025815;28;20017;-60
2023/12/02 06:36:44;;;;;;;23.95;13.23;;;-2.20;99.90;;;;;;5025927;28;20038;-61
2023/12/02 06:39:12;;;;;;;20.95;11.73;;;-2.20;99.90;;;;;;5024929;28;20014;-61
2023/12/02 06:41:38;;;;;;;14.00;8.68;;;-2.30;99.90;;;;;;5036198;28;20092;-61
2023/12/02 06:44:04;;;;;;;20.25;9.88;;;-2.20;99.90;;;;;;5026240;28;20038;-61
2023/12/02 06:46:30;;;;;;;15.70;10.48;;;-2.20;99.90;;;;;;5027730;28;20029;-60
2023/12/02 06:48:55;;;;;;;22.90;10.40;;;-2.30;99.90;;;;;;5028508;28;20505;-62
2023/12/02 06:51:23;;;;;;;19.30;10.75;;;-2.30;99.90;;;;;;5030326;28;20462;-61
2023/12/02 06:53:49;;;;;;;15.75;9.32;;;-2.30;99.90;;;;;;5027414;28;20034;-61
2023/12/02 06:56:21;;;;;;;19.23;9.40;;;-2.30;99.90;;;;;;5028492;28;20079;-61
2023/12/02 06:58:47;;;;;;;17.33;10.50;;;-2.30;99.90;;;;;;5027496;28;20128;-60
2023/12/02 07:01:30;;;;;;;98.22;31.23;;;-2.30;99.90;;;;;;5028403;28;20025;-62
2023/12/02 07:03:57;;;;;;;63.58;22.63;;;-2.30;99.90;;;;;;5029290;28;20021;-60
2023/12/02 07:06:23;;;;;;;24.00;13.00;;;-2.30;99.90;;;;;;5026663;28;20021;-61
2023/12/02 07:08:49;;;;;;;27.40;12.90;;;-2.30;99.90;;;;;;5027963;28;20034;-61
2023/12/02 07:11:15;;;;;;;36.40;16.45;;;-2.30;99.90;;;;;;5028241;28;20117;-62
2023/12/02 07:13:41;;;;;;;21.17;10.05;;;-2.30;99.90;;;;;;5028347;28;20148;-62
2023/12/02 07:16:07;;;;;;;34.33;14.60;;;-2.40;99.90;;;;;;5027693;28;20033;-61
2023/12/02 07:18:33;;;;;;;44.58;19.27;;;-2.40;99.90;;;;;;5029257;28;20104;-60
2023/12/02 07:20:58;;;;;;;15.32;11.05;;;-2.30;99.90;;;;;;5027555;28;20187;-61
2023/12/02 07:23:31;;;;;;;13.45;9.02;;;-2.30;99.90;;;;;;5027390;28;20036;-61
2023/12/02 07:25:57;;;;;;;18.70;11.68;;;-2.30;99.90;;;;;;5022084;28;20532;-61
2023/12/02 07:28:23;;;;;;;19.48;12.35;;;-2.30;99.90;;;;;;5011375;28;20037;-62
2023/12/02 07:30:49;;;;;;;13.23;8.88;;;-2.30;99.90;;;;;;5027136;28;20030;-62
2023/12/02 07:33:15;;;;;;;16.13;8.27;;;-2.30;99.90;;;;;;5029117;28;20497;-62
2023/12/02 07:35:41;;;;;;;13.48;8.82;;;-2.30;99.90;;;;;;5027983;28;20033;-60
2023/12/02 07:38:06;;;;;;;29.00;16.23;;;-2.30;99.90;;;;;;5026743;28;20029;-61
2023/12/02 07:40:32;;;;;;;11.48;7.80;;;-2.30;99.90;;;;;;5028255;28;20026;-61
2023/12/02 07:42:58;;;;;;;17.27;11.25;;;-2.30;99.90;;;;;;5026912;28;20025;-61
2023/12/02 07:45:23;;;;;;;19.85;9.88;;;-2.30;99.90;;;;;;5027691;28;20602;-62
2023/12/02 07:47:49;;;;;;;20.98;10.70;;;-2.30;99.90;;;;;;5024949;28;20026;-61
2023/12/02 07:50:15;;;;;;;58.63;24.90;;;-2.30;99.90;;;;;;5028060;28;20398;-61
2023/12/02 07:52:41;;;;;;;21.58;13.32;;;-2.20;99.90;;;;;;5027280;28;20029;-60
2023/12/02 07:55:07;;;;;;;10.05;7.88;;;-2.20;99.90;;;;;;5026141;28;20033;-61
2023/12/02 07:57:32;;;;;;;11.68;8.45;;;-2.20;99.90;;;;;;5028643;28;20026;-61
2023/12/02 07:59:58;;;;;;;10.07;7.68;;;-2.20;99.90;;;;;;5026957;28;20501;-61
2023/12/02 08:02:24;;;;;;;16.40;9.88;;;-2.20;99.90;;;;;;5025460;28;20036;-62
2023/12/02 08:04:50;;;;;;;19.17;10.23;;;-2.20;99.90;;;;;;5024731;28;20038;-61
2023/12/02 08:07:15;;;;;;;14.98;9.48;;;-2.20;99.90;;;;;;5022872;28;20037;-60
2023/12/02 08:09:41;;;;;;;21.48;13.65;;;-2.20;99.90;;;;;;5023724;28;20026;-61
2023/12/02 08:12:07;;;;;;;28.25;15.95;;;-2.20;99.90;;;;;;5025100;28;20018;-61
2023/12/02 08:14:32;;;;;;;17.05;11.77;;;-2.20;99.90;;;;;;5023101;28;20037;-60
2023/12/02 08:16:58;;;;;;;12.07;8.13;;;-2.10;99.90;;;;;;5021514;28;20041;-60
2023/12/02 08:19:24;;;;;;;15.38;11.38;;;-2.10;99.90;;;;;;5025469;28;20034;-61
2023/12/02 08:21:50;;;;;;;9.23;6.43;;;-2.10;99.90;;;;;;5023400;28;20547;-62
2023/12/02 08:24:16;;;;;;;12.98;8.25;;;-2.10;99.90;;;;;;5021684;28;20828;-60
2023/12/02 08:26:42;;;;;;;10.38;6.20;;;-2.10;99.90;;;;;;5025658;28;20100;-61
2023/12/02 08:29:07;;;;;;;8.63;7.38;;;-2.10;99.90;;;;;;5023193;28;20063;-61
2023/12/02 08:31:33;;;;;;;22.25;13.77;;;-2.10;99.90;;;;;;5023117;28;20034;-61
2023/12/02 08:33:59;;;;;;;11.27;9.23;;;-2.10;99.90;;;;;;5023476;28;20104;-60
2023/12/02 08:36:24;;;;;;;8.68;7.35;;;-2.10;99.90;;;;;;5024297;28;20017;-60
2023/12/02 08:38:50;;;;;;;18.98;15.18;;;-2.10;99.90;;;;;;5024369;28;20041;-60
2023/12/02 08:41:16;;;;;;;26.00;16.98;;;-2.10;99.90;;;;;;5022083;28;20062;-61
2023/12/02 08:43:41;;;;;;;13.60;12.23;;;-2.10;99.90;;;;;;5019950;28;20401;-61
2023/12/02 08:46:17;;;;;;;14.65;11.23;;;-2.10;99.90;;;;;;5022227;28;20049;-62
2023/12/02 08:48:44;;;;;;;12.40;10.93;;;-2.10;99.90;;;;;;5018559;28;20010;-62
2023/12/02 08:51:10;;;;;;;11.13;7.03;;;-2.10;99.90;;;;;;5021965;28;20036;-62
2023/12/02 08:53:35;;;;;;;7.85;6.10;;;-2.10;99.90;;;;;;5021432;28;20029;-61
2023/12/02 08:56:01;;;;;;;8.65;7.78;;;-2.00;99.90;;;;;;5024236;28;20026;-62
2023/12/02 08:58:27;;;;;;;8.48;6.97;;;-2.00;99.90;;;;;;5025079;28;20462;-60
2023/12/02 09:00:53;;;;;;;8.45;6.85;;;-2.00;99.90;;;;;;5023852;28;20420;-62
2023/12/02 09:03:18;;;;;;;8.27;6.13;;;-1.90;99.90;;;;;;5024532;28;20105;-62
2023/12/02 09:05:44;;;;;;;7.10;6.40;;;-1.90;99.90;;;;;;5025805;28;20030;-61
2023/12/02 09:08:10;;;;;;;8.45;7.22;;;-1.90;99.90;;;;;;5026109;28;20069;-61
2023/12/02 09:10:36;;;;;;;8.35;6.72;;;-1.90;99.90;;;;;;5023522;28;20496;-62
2023/12/02 09:13:11;;;;;;;7.32;6.50;;;-1.90;99.90;;;;;;5020850;28;20163;-62
2023/12/02 09:15:42;;;;;;;7.45;5.70;;;-1.90;99.90;;;;;;5024937;28;20072;-61
2023/12/02 09:18:14;;;;;;;7.45;5.82;;;-1.90;99.90;;;;;;5028312;28;20045;-61
2023/12/02 09:20:55;;;;;;;7.53;5.90;;;-1.80;99.90;;;;;;5027619;28;20038;-61
2023/12/02 09:23:21;;;;;;;9.18;7.22;;;-1.80;99.90;;;;;;5027233;28;20029;-61
2023/12/02 09:25:48;;;;;;;7.85;6.63;;;-1.80;99.90;;;;;;5026304;28;20026;-61
2023/12/02 09:28:15;;;;;;;8.10;6.72;;;-1.70;99.90;;;;;;5026265;28;20494;-62
2023/12/02 09:30:47;;;;;;;8.25;6.40;;;-1.70;99.90;;;;;;5027250;28;20056;-61
2023/12/02 09:33:12;;;;;;;8.23;6.32;;;-1.70;99.90;;;;;;5027780;28;20024;-62
2023/12/02 09:35:38;;;;;;;8.38;6.20;;;-1.60;99.90;;;;;;5026715;28;20030;-62
2023/12/02 09:38:03;;;;;;;8.15;6.40;;;-1.60;99.90;;;;;;5027538;28;20098;-62
2023/12/02 09:41:04;;;;;;;7.07;5.40;;;-1.50;99.90;;;;;;5027193;28;20017;-62
2023/12/02 09:43:33;;;;;;;6.47;5.32;;;-1.40;99.90;;;;;;5013813;28;20025;-62
2023/12/02 09:46:19;;;;;;;9.38;6.60;;;-1.40;99.90;;;;;;5026184;28;20064;-62
2023/12/02 09:49:13;;;;;;;8.63;5.70;;;-1.30;99.90;;;;;;5027209;28;20017;-62
2023/12/02 09:51:45;;;;;;;5.85;5.22;;;-1.30;99.90;;;;;;5025576;28;20021;-63
2023/12/02 09:54:46;;;;;;;6.20;5.03;;;-1.30;99.90;;;;;;5024737;28;20049;-61
2023/12/02 09:57:37;;;;;;;11.82;8.50;;;-1.30;99.90;;;;;;5026914;28;20084;-61
2023/12/02 10:00:16;;;;;;;7.93;6.38;;;-1.30;99.90;;;;;;5024400;28;20129;-62
2023/12/02 10:02:56;;;;;;;8.65;6.57;;;-1.30;99.90;;;;;;5025866;28;20043;-61
2023/12/02 10:05:23;;;;;;;7.32;5.78;;;-1.20;99.90;;;;;;5026662;28;20051;-62
2023/12/02 10:08:16;;;;;;;7.25;5.70;;;-1.20;99.90;;;;;;5027270;28;20029;-61
2023/12/02 10:11:02;;;;;;;9.52;7.25;;;-1.20;99.90;;;;;;5026460;28;20502;-61
2023/12/02 10:13:44;;;;;;;85.18;28.23;;;-1.20;99.90;;;;;;5026255;28;20053;-63
2023/12/02 10:16:15;;;;;;;8.80;7.18;;;-1.10;99.90;;;;;;5026253;28;20044;-61
2023/12/02 10:18:48;;;;;;;12.45;10.02;;;-1.10;99.90;;;;;;5026437;28;20516;-61
2023/12/02 10:21:18;;;;;;;9.40;6.80;;;-1.10;99.90;;;;;;5026303;28;20124;-61
2023/12/02 10:24:04;;;;;;;8.27;6.80;;;-1.10;99.90;;;;;;5024461;28;20832;-61
2023/12/02 10:26:52;;;;;;;8.52;6.88;;;-1.00;99.90;;;;;;5022514;28;20040;-62
2023/12/02 10:29:25;;;;;;;8.43;6.40;;;-0.90;99.90;;;;;;5020572;28;20513;-62
2023/12/02 10:32:00;;;;;;;11.02;7.97;;;-0.90;99.90;;;;;;5019925;28;20124;-61
2023/12/02 10:34:32;;;;;;;6.20;5.60;;;-0.80;99.90;;;;;;5022088;28;20080;-62
2023/12/02 10:37:00;;;;;;;9.07;6.72;;;-0.80;99.90;;;;;;5022684;28;20022;-62
2023/12/02 10:39:39;;;;;;;7.50;6.40;;;-0.80;99.90;;;;;;5021548;28;20770;-61
2023/12/02 10:42:05;;;;;;;8.75;6.03;;;-0.80;99.90;;;;;;5021838;28;20391;-62
2023/12/02 10:44:32;;;;;;;8.18;6.78;;;-0.80;99.90;;;;;;5023388;28;20056;-61
2023/12/02 10:47:00;;;;;;;7.15;5.38;;;-0.80;99.90;;;;;;5024526;28;20046;-62
2023/12/02 10:49:28;;;;;;;6.95;5.57;;;-0.90;99.90;;;;;;5025889;28;20116;-62
2023/12/02 10:51:57;;;;;;;7.45;5.95;;;-0.90;99.90;;;;;;5025638;28;20026;-61
2023/12/02 10:54:26;;;;;;;6.45;5.18;;;-1.00;99.90;;;;;;5024554;28;20096;-61
2023/12/02 10:57:03;;;;;;;6.97;5.05;;;-1.00;99.90;;;;;;5025026;28;20037;-61
2023/12/02 10:59:33;;;;;;;7.05;5.28;;;-1.00;99.90;;;;;;5023008;28;20025;-61
2023/12/02 11:02:19;;;;;;;7.40;4.93;;;-1.00;99.90;;;;;;5022228;28;20041;-61
2023/12/02 11:04:48;;;;;;;6.90;6.18;;;-0.90;99.90;;;;;;5025408;28;20517;-62
2023/12/02 11:07:17;;;;;;;7.78;6.45;;;-0.90;99.90;;;;;;5023947;28;20116;-61
2023/12/02 11:09:46;;;;;;;6.75;5.72;;;-0.90;99.90;;;;;;5023660;28;20033;-62
2023/12/02 11:12:30;;;;;;;7.05;4.95;;;-0.90;99.90;;;;;;5023773;28;20051;-61
2023/12/02 11:15:03;;;;;;;11.07;7.38;;;-0.90;99.90;;;;;;5024247;28;20028;-62
2023/12/02 11:17:42;;;;;;;25.27;9.57;;;-0.90;99.90;;;;;;5024193;28;20021;-62
2023/12/02 11:20:33;;;;;;;8.93;6.05;;;-0.90;99.90;;;;;;5024466;28;20091;-62
2023/12/02 11:23:11;;;;;;;7.57;5.57;;;-0.80;99.90;;;;;;5023239;28;20088;-61
2023/12/02 11:25:55;;;;;;;8.02;5.95;;;-0.80;99.90;;;;;;5024025;28;20060;-61
2023/12/02 11:28:36;;;;;;;6.45;4.90;;;-0.90;99.90;;;;;;5024238;28;20040;-62
2023/12/02 11:31:01;;;;;;;7.90;5.82;;;-0.90;99.90;;;;;;5027482;28;20406;-62
2023/12/02 11:34:14;;;;;;;6.53;5.53;;;-0.90;99.90;;;;;;5028515;28;20044;-61
2023/12/02 11:36:57;;;;;;;7.60;5.80;;;-0.90;99.90;;;;;;5010127;28;20066;-60
2023/12/02 11:39:32;;;;;;;6.32;4.88;;;-0.90;99.90;;;;;;5027062;28;20052;-63
2023/12/02 11:42:15;;;;;;;20.13;9.02;;;-1.00;99.90;;;;;;5027894;28;20752;-62
2023/12/02 11:45:02;;;;;;;8.45;7.18;;;-1.00;99.90;;;;;;5027251;28;20040;-61
2023/12/02 11:47:54;;;;;;;7.55;5.35;;;-1.00;99.90;;;;;;5028562;28;20030;-61
2023/12/02 11:51:01;;;;;;;7.82;6.32;;;-1.10;99.90;;;;;;5009299;28;20374;-62
2023/12/02 11:53:36;;;;;;;7.97;6.75;;;-1.00;99.90;;;;;;5028182;28;20037;-62
2023/12/02 11:56:10;;;;;;;8.45;6.07;;;-0.90;99.90;;;;;;5027583;28;20087;-61
2023/12/02 11:58:47;;;;;;;6.78;5.75;;;-0.80;99.90;;;;;;5025645;28;20041;-62
2023/12/02 12:01:46;;;;;;;8.05;6.07;;;-0.80;99.90;;;;;;5026570;28;20060;-61
2023/12/02 12:04:46;;;;;;;6.18;4.68;;;-0.80;99.90;;;;;;5028291;28;20121;-61
2023/12/02 12:07:18;;;;;;;9.55;7.65;;;-0.80;99.90;;;;;;5027039;28;20030;-60
2023/12/02 12:09:55;;;;;;;7.50;5.22;;;-0.80;99.90;;;;;;5027663;28;20036;-61
2023/12/02 12:12:23;;;;;;;11.20;8.18;;;-0.80;99.90;;;;;;5029194;28;20022;-62
2023/12/02 12:14:51;;;;;;;7.32;4.93;;;-0.80;99.90;;;;;;5027135;28;20022;-61
2023/12/02 12:17:17;;;;;;;29.30;13.55;;;-0.90;99.90;;;;;;5028431;28;20026;-61
2023/12/02 12:19:43;;;;;;;17.48;12.27;;;-0.90;99.90;;;;;;5022271;28;20154;-62
2023/12/02 12:22:09;;;;;;;15.98;9.68;;;-0.90;99.90;;;;;;5025207;28;20568;-62
2023/12/02 12:24:35;;;;;;;50.63;22.13;;;-0.90;99.90;;;;;;5023925;28;20048;-62
2023/12/02 12:27:01;;;;;;;10.00;7.55;;;-0.90;99.90;;;;;;5024415;28;20608;-61
2023/12/02 12:29:26;;;;;;;21.25;10.10;;;-0.80;99.90;;;;;;5023212;28;20037;-62
2023/12/02 12:31:56;;;;;;;25.77;14.18;;;-0.80;99.90;;;;;;5022723;28;20091;-61
2023/12/02 12:34:22;;;;;;;8.05;6.13;;;-0.80;99.90;;;;;;5023011;28;20099;-62
2023/12/02 12:36:47;;;;;;;7.75;5.65;;;-0.80;99.90;;;;;;5021788;28;20507;-63
2023/12/02 12:39:16;;;;;;;7.25;6.13;;;-0.70;99.90;;;;;;5023701;28;20025;-62